MTM weather

Metlakatla Seaplane Base
Metlakatla, Alaska, United States

Public forecast

Using degrees Fahrenheit for public forecast. Weather courtesy of forecast.io.

Current aviation weather report (METAR) for Metlakatla Seaplane Base

Retrieved 2019/11/19 08:56 UTC (13 minutes ago):

PAMM 190856Z AUTO 32007KT 10SM FEW035 07/04 A3004 RMK AO2 SLP162 T00720039 51019

Closest aviation forecast (TAF) to Metlakatla Seaplane Base

Closest forecast is Ketchikan International Airport, 14.3 nm (26.4 km) NNW. Retrieved 2019/11/19 06:39 UTC (2 hours ago):

TAF PAKT 190535Z 1906/2006 VRB03KT P6SM SCT020 BKN035 TEMPO 1911/1915 SCT008 BKN035 AMD LTD TO CLD VIS AND WIND 1906/1915